createdAt,value
2018-02-14T00:00:50.758Z,43.60
2018-02-14T00:03:18.344Z,42.43
2018-02-14T00:05:45.910Z,42.57
2018-02-14T00:08:13.477Z,43.40
2018-02-14T00:10:41.059Z,42.20
2018-02-14T00:13:08.603Z,43.80
2018-02-14T00:15:36.149Z,38.63
2018-02-14T00:18:03.880Z,39.87
2018-02-14T00:20:31.425Z,43.17
2018-02-14T00:22:58.978Z,38.47
2018-02-14T00:25:26.854Z,39.97
2018-02-14T00:27:54.405Z,43.13
2018-02-14T00:30:21.958Z,39.07
2018-02-14T00:32:49.564Z,41.60
2018-02-14T00:35:17.112Z,37.97
2018-02-14T00:37:44.667Z,45.77
2018-02-14T00:40:12.264Z,46.47
2018-02-14T00:42:39.820Z,39.33
2018-02-14T00:45:07.377Z,43.63
2018-02-14T00:54:06.555Z,40.87
2018-02-14T00:56:34.126Z,45.17
2018-02-14T00:59:01.671Z,47.70
2018-02-14T01:01:29.270Z,43.10
2018-02-14T01:03:56.818Z,40.70
2018-02-14T01:06:24.389Z,41.97
2018-02-14T01:08:51.968Z,40.20
2018-02-14T01:11:19.530Z,39.00
2018-02-14T01:13:47.076Z,41.33
2018-02-14T01:16:15.591Z,38.67
2018-02-14T01:18:48.955Z,36.33
2018-02-14T01:21:16.555Z,41.87
2018-02-14T01:23:44.126Z,34.57
2018-02-14T01:26:11.731Z,35.20
2018-02-14T01:28:39.368Z,37.80
2018-02-14T01:31:06.933Z,34.57
2018-02-14T01:33:34.499Z,36.93
2018-02-14T01:36:02.071Z,36.87
2018-02-14T01:38:29.622Z,32.63
2018-02-14T01:40:57.194Z,37.93
2018-02-14T01:43:25.086Z,38.70
2018-02-14T01:45:52.645Z,32.00
2018-02-14T01:48:20.226Z,37.43
2018-02-14T01:50:47.802Z,31.70
2018-02-14T01:53:15.352Z,34.07
2018-02-14T01:55:42.894Z,32.93
2018-02-14T01:58:10.626Z,33.10
2018-02-14T02:00:38.180Z,28.47
2018-02-14T02:03:05.956Z,30.70
2018-02-14T02:05:33.565Z,29.63
2018-02-14T02:08:01.109Z,30.43
2018-02-14T02:10:28.665Z,28.03
2018-02-14T02:12:56.245Z,29.63
2018-02-14T02:15:23.795Z,31.00
2018-02-14T02:17:51.373Z,29.20
2018-02-14T02:20:18.965Z,29.33
2018-02-14T02:22:46.521Z,30.37
2018-02-14T02:25:14.095Z,31.57
2018-02-14T02:27:41.983Z,29.47
2018-02-14T02:30:09.548Z,35.93
2018-02-14T02:32:37.104Z,29.30
2018-02-14T02:35:04.840Z,29.57
2018-02-14T02:37:32.386Z,28.50
2018-02-14T02:40:11.604Z,29.77
2018-02-14T02:42:39.149Z,29.97
2018-02-14T02:45:06.722Z,28.17
2018-02-14T02:47:34.334Z,28.63
2018-02-14T02:50:01.896Z,38.53
2018-02-14T02:52:29.470Z,57.03
2018-02-14T02:54:57.351Z,26.27
2018-02-14T02:57:24.904Z,30.50
2018-02-14T02:59:52.446Z,24.03
2018-02-14T03:02:20.191Z,21.13
2018-02-14T03:04:47.742Z,24.67
2018-02-14T03:07:15.311Z,24.50
2018-02-14T03:09:43.189Z,22.83
2018-02-14T03:12:10.736Z,22.73
2018-02-14T03:14:38.291Z,23.53
2018-02-14T03:17:05.879Z,22.93
2018-02-14T03:19:33.439Z,23.40
2018-02-14T03:22:00.997Z,23.47
2018-02-14T03:24:28.585Z,23.00
2018-02-14T03:26:56.131Z,21.87
2018-02-14T03:29:23.708Z,23.97
2018-02-14T03:31:51.295Z,18.83
2018-02-14T03:34:18.843Z,18.40
2018-02-14T03:36:46.402Z,26.33
2018-02-14T03:39:14.522Z,27.80
2018-02-14T03:41:42.078Z,18.93
2018-02-14T03:44:09.630Z,14.70
2018-02-14T03:46:37.362Z,17.53
2018-02-14T03:49:04.917Z,16.50
2018-02-14T03:51:32.494Z,20.43
2018-02-14T03:54:00.189Z,21.80
2018-02-14T03:56:27.738Z,27.13
2018-02-14T03:58:55.310Z,22.40
2018-02-14T04:01:22.917Z,24.80
2018-02-14T04:03:50.464Z,23.13
2018-02-14T04:06:18.019Z,23.10
2018-02-14T04:08:45.794Z,20.80
2018-02-14T04:11:13.362Z,25.17
2018-02-14T04:13:40.944Z,30.13
2018-02-14T04:16:08.521Z,43.60
2018-02-14T04:18:36.317Z,36.20
2018-02-14T04:21:03.873Z,28.57
2018-02-14T04:23:31.490Z,28.13
2018-02-14T04:25:59.048Z,20.63
2018-02-14T04:28:27.191Z,22.73
2018-02-14T04:30:54.908Z,23.33
2018-02-14T04:33:22.453Z,20.37
2018-02-14T04:35:50.023Z,24.13
2018-02-14T04:38:17.609Z,21.20
2018-02-14T04:40:45.159Z,15.60
2018-02-14T04:43:12.765Z,19.90
2018-02-14T04:45:40.350Z,22.87
2018-02-14T04:48:07.911Z,21.83
2018-02-14T04:50:35.459Z,22.83
2018-02-14T04:53:03.042Z,19.60
2018-02-14T04:55:30.594Z,17.93
2018-02-14T04:57:58.181Z,16.53
2018-02-14T05:00:25.762Z,18.33
2018-02-14T05:02:53.312Z,19.10
2018-02-14T05:05:20.871Z,23.50
2018-02-14T05:07:48.491Z,31.57
2018-02-14T05:10:16.042Z,30.03
2018-02-14T05:12:43.638Z,31.73
2018-02-14T05:15:11.223Z,25.77
2018-02-14T05:17:38.769Z,26.33
2018-02-14T05:20:06.360Z,22.33
2018-02-14T05:22:33.912Z,21.33
2018-02-14T05:25:01.471Z,19.43
2018-02-14T05:27:29.070Z,22.37
2018-02-14T05:29:56.634Z,17.40
2018-02-14T05:32:24.187Z,17.57
2018-02-14T05:34:51.788Z,20.87
2018-02-14T05:37:19.368Z,18.73
2018-02-14T05:39:46.913Z,21.77
2018-02-14T05:42:14.512Z,30.57
2018-02-14T05:44:42.062Z,37.10
2018-02-14T05:47:09.634Z,81.97
2018-02-14T05:49:37.220Z,226.67
2018-02-14T05:52:04.776Z,57.03
2018-02-14T05:54:32.342Z,53.77
2018-02-14T05:57:00.084Z,49.60
2018-02-14T05:59:27.632Z,51.83
2018-02-14T06:01:55.182Z,52.27
2018-02-14T06:04:22.766Z,56.93
2018-02-14T06:06:50.334Z,51.97
2018-02-14T06:09:17.893Z,40.97
2018-02-14T06:11:45.479Z,35.60
2018-02-14T06:14:13.036Z,33.13
2018-02-14T06:16:40.580Z,33.73
2018-02-14T06:19:08.179Z,24.63
2018-02-14T06:21:35.729Z,30.50
2018-02-14T06:24:03.311Z,21.77
2018-02-14T06:26:30.905Z,7.23
2018-02-14T06:28:58.455Z,6.67
2018-02-14T06:31:26.033Z,7.80
2018-02-14T06:33:53.682Z,4.33
2018-02-14T06:36:21.221Z,4.67
2018-02-14T06:38:48.786Z,4.40
2018-02-14T06:41:16.520Z,6.17
2018-02-14T06:43:44.086Z,9.07
2018-02-14T06:46:11.621Z,2.93
2018-02-14T06:48:39.222Z,2.13
2018-02-14T06:51:06.770Z,2.70
2018-02-14T06:53:34.314Z,5.93
2018-02-14T06:56:02.096Z,7.60
2018-02-14T06:58:29.642Z,24.80
2018-02-14T07:00:57.180Z,14.53
2018-02-14T07:03:24.957Z,8.63
2018-02-14T07:05:52.525Z,9.80
2018-02-14T07:08:20.072Z,4.43
2018-02-14T07:10:47.971Z,6.20
2018-02-14T07:13:15.527Z,6.03
2018-02-14T07:15:43.078Z,7.37
2018-02-14T07:18:10.799Z,8.23
2018-02-14T07:20:38.342Z,7.87
2018-02-14T07:23:05.891Z,7.90
2018-02-14T07:25:33.473Z,8.30
2018-02-14T07:28:01.015Z,4.00
2018-02-14T07:30:28.564Z,4.37
2018-02-14T07:32:56.431Z,3.47
2018-02-14T07:35:24.021Z,3.37
2018-02-14T07:37:51.571Z,2.80
2018-02-14T07:40:19.263Z,2.67
2018-02-14T07:42:46.809Z,3.43
2018-02-14T07:45:14.355Z,4.57
2018-02-14T07:47:41.939Z,5.53
2018-02-14T07:50:09.496Z,5.47
2018-02-14T07:59:19.246Z,6.60
2018-02-14T08:01:46.807Z,5.37
2018-02-14T08:04:14.367Z,4.40
2018-02-14T08:06:41.976Z,7.67
2018-02-14T08:09:09.560Z,9.63
2018-02-14T08:11:37.092Z,5.67
2018-02-14T08:14:04.655Z,4.43
2018-02-14T08:16:32.270Z,4.63
2018-02-14T08:19:00.009Z,9.17
2018-02-14T08:21:27.559Z,7.83
2018-02-14T08:23:55.116Z,11.00
2018-02-14T08:26:22.886Z,3.20
2018-02-14T08:28:50.418Z,3.10
2018-02-14T08:31:17.963Z,2.40
2018-02-14T08:33:45.634Z,2.43
2018-02-14T08:36:13.190Z,2.20
2018-02-14T08:38:40.737Z,3.07
2018-02-14T08:41:08.597Z,2.97
2018-02-14T08:43:36.148Z,3.50
2018-02-14T08:46:03.730Z,3.90
2018-02-14T08:48:31.420Z,2.87
2018-02-14T08:50:58.974Z,1.97
2018-02-14T08:53:26.516Z,3.47
2018-02-14T08:55:54.094Z,3.43
2018-02-14T08:58:21.659Z,2.33
2018-02-14T09:00:49.218Z,2.57
2018-02-14T09:03:16.957Z,3.33
2018-02-14T09:05:44.502Z,3.83
2018-02-14T09:08:12.094Z,6.10
2018-02-14T09:10:39.678Z,2.67
2018-02-14T09:13:07.232Z,2.63
2018-02-14T09:15:34.772Z,6.37
2018-02-14T09:18:02.478Z,3.87
2018-02-14T09:20:30.039Z,3.37
2018-02-14T09:22:59.351Z,4.07
2018-02-14T09:25:27.210Z,4.80
2018-02-14T09:27:54.765Z,3.00
2018-02-14T09:30:22.305Z,3.40
2018-02-14T09:32:50.187Z,2.83
2018-02-14T09:35:17.723Z,2.60
2018-02-14T09:37:45.275Z,5.67
2018-02-14T09:40:12.843Z,2.43
2018-02-14T09:42:40.395Z,2.10
2018-02-14T09:45:08.006Z,2.07
2018-02-14T09:47:35.609Z,2.47
2018-02-14T09:50:03.175Z,2.30
2018-02-14T09:52:30.718Z,2.67
2018-02-14T09:54:58.446Z,2.90
2018-02-14T09:57:25.998Z,2.33
2018-02-14T09:59:53.542Z,2.10
2018-02-14T10:02:21.420Z,2.97
2018-02-14T10:04:48.961Z,2.17
2018-02-14T10:07:16.522Z,2.73
2018-02-14T10:09:44.108Z,1.97
2018-02-14T10:12:11.650Z,2.77
2018-02-14T10:14:39.188Z,3.33
2018-02-14T10:17:06.764Z,2.07
2018-02-14T10:19:34.330Z,2.50
2018-02-14T10:22:01.892Z,4.20
2018-02-14T10:24:29.760Z,2.40
2018-02-14T10:26:57.335Z,2.50
2018-02-14T10:29:24.911Z,2.60
2018-02-14T10:31:52.639Z,2.30
2018-02-14T10:34:20.211Z,2.60
2018-02-14T10:36:47.764Z,2.57
2018-02-14T10:39:15.348Z,3.00
2018-02-14T10:41:42.893Z,5.20
2018-02-14T10:44:10.440Z,2.17
2018-02-14T10:46:38.011Z,3.73
2018-02-14T10:49:05.553Z,2.90
2018-02-14T10:51:33.098Z,3.50
2018-02-14T10:54:00.786Z,3.00
2018-02-14T10:56:28.318Z,2.50
2018-02-14T10:58:55.866Z,3.40
2018-02-14T11:01:28.821Z,3.20
2018-02-14T11:03:56.396Z,3.63
2018-02-14T11:06:29.703Z,3.43
2018-02-14T11:08:57.252Z,3.20
2018-02-14T11:11:24.788Z,4.00
2018-02-14T11:13:52.547Z,3.77
2018-02-14T11:16:20.840Z,3.80
2018-02-14T11:18:48.396Z,4.43
2018-02-14T11:21:16.270Z,4.63
2018-02-14T11:23:43.831Z,4.90
2018-02-14T11:26:11.395Z,4.27
2018-02-14T11:28:39.063Z,4.60
2018-02-14T11:31:06.617Z,4.30
2018-02-14T11:33:34.177Z,4.90
2018-02-14T11:36:01.775Z,6.07
2018-02-14T11:38:29.326Z,5.97
2018-02-14T11:40:56.868Z,5.23
2018-02-14T11:43:24.456Z,7.83
2018-02-14T11:45:52.033Z,5.60
2018-02-14T11:48:19.581Z,5.93
2018-02-14T11:50:47.152Z,7.67
2018-02-14T11:53:14.723Z,7.30
2018-02-14T11:55:42.287Z,6.67
2018-02-14T11:58:10.024Z,7.90
2018-02-14T12:00:37.563Z,5.07
2018-02-14T12:03:05.121Z,11.53
2018-02-14T12:05:32.703Z,14.27
2018-02-14T12:08:00.261Z,25.50
2018-02-14T12:10:27.809Z,21.93
2018-02-14T12:12:55.409Z,24.27
2018-02-14T12:15:22.962Z,16.70
2018-02-14T12:17:50.538Z,16.10
2018-02-14T12:20:18.413Z,22.73
2018-02-14T12:22:46.453Z,14.53
2018-02-14T12:25:14.004Z,14.30
2018-02-14T12:27:41.594Z,18.87
2018-02-14T12:30:09.147Z,10.93
2018-02-14T12:32:36.707Z,15.57
2018-02-14T12:35:04.632Z,20.53
2018-02-14T12:37:32.194Z,15.97
2018-02-14T12:39:59.790Z,16.43
2018-02-14T12:42:27.382Z,16.93
2018-02-14T12:44:54.953Z,16.33
2018-02-14T12:47:22.515Z,14.00
2018-02-14T12:49:50.230Z,11.70
2018-02-14T12:52:17.781Z,14.57
2018-02-14T12:54:45.329Z,16.83
2018-02-14T12:57:12.915Z,22.80
2018-02-14T12:59:40.462Z,26.07
2018-02-14T13:02:08.038Z,22.63
2018-02-14T13:04:35.641Z,15.87
2018-02-14T13:07:03.193Z,17.27
2018-02-14T13:09:30.752Z,24.57
2018-02-14T13:11:58.354Z,23.80
2018-02-14T13:14:25.906Z,25.53
2018-02-14T13:16:53.454Z,24.10
2018-02-14T13:19:21.270Z,16.50
2018-02-14T13:21:49.697Z,14.10
2018-02-14T13:24:17.256Z,16.03
2018-02-14T13:26:44.971Z,17.20
2018-02-14T13:29:12.526Z,14.40
2018-02-14T13:31:40.083Z,14.87
2018-02-14T13:34:07.842Z,15.00
2018-02-14T13:36:35.392Z,17.40
2018-02-14T13:39:03.004Z,20.07
2018-02-14T13:41:30.605Z,16.70
2018-02-14T13:43:58.168Z,18.97
2018-02-14T13:46:25.733Z,19.40
2018-02-14T13:48:53.704Z,15.33
2018-02-14T13:51:21.257Z,14.37
2018-02-14T13:53:48.837Z,16.47
2018-02-14T13:56:16.733Z,19.63
2018-02-14T13:58:44.294Z,18.90
2018-02-14T14:01:11.858Z,20.20
2018-02-14T14:03:39.445Z,18.20
2018-02-14T14:06:06.990Z,21.17
2018-02-14T14:08:34.538Z,21.43
2018-02-14T14:11:02.173Z,23.43
2018-02-14T14:13:29.705Z,24.60
2018-02-14T14:15:57.263Z,19.20
2018-02-14T14:18:24.948Z,19.63
2018-02-14T14:20:52.506Z,19.70
2018-02-14T14:23:20.055Z,22.33
2018-02-14T14:25:47.637Z,21.93
2018-02-14T14:28:15.199Z,16.83
2018-02-14T14:30:42.759Z,15.23
2018-02-14T14:33:10.337Z,14.67
2018-02-14T14:35:37.887Z,13.90
2018-02-14T14:38:05.447Z,16.27
2018-02-14T14:40:33.333Z,14.67
2018-02-14T14:43:00.899Z,13.23
2018-02-14T14:45:28.463Z,14.10
2018-02-14T14:47:56.350Z,13.37
2018-02-14T14:57:30.053Z,19.73
2018-02-14T14:59:57.621Z,22.73
2018-02-14T15:02:25.196Z,19.40
2018-02-14T15:04:53.088Z,26.50
2018-02-14T15:07:20.642Z,28.07
2018-02-14T15:09:48.217Z,26.17
2018-02-14T15:12:15.974Z,26.27
2018-02-14T15:14:43.553Z,25.27
2018-02-14T15:17:11.110Z,25.40
2018-02-14T15:19:38.900Z,30.80
2018-02-14T15:22:06.514Z,26.10
2018-02-14T15:24:34.043Z,24.73
2018-02-14T15:27:01.622Z,25.93
2018-02-14T15:29:29.186Z,30.13
2018-02-14T15:31:56.741Z,28.67
2018-02-14T15:34:24.355Z,39.37
2018-02-14T15:36:51.904Z,29.60
2018-02-14T15:39:19.466Z,34.03
2018-02-14T15:41:47.181Z,26.03
2018-02-14T15:44:14.757Z,29.47
2018-02-14T15:46:42.323Z,28.97
2018-02-14T15:49:10.025Z,29.17
2018-02-14T15:51:37.579Z,25.97
2018-02-14T15:54:05.146Z,33.33
2018-02-14T15:56:32.903Z,30.30
2018-02-14T15:59:00.451Z,27.77
2018-02-14T16:01:28.011Z,32.30
2018-02-14T16:03:55.744Z,26.87
2018-02-14T16:06:23.314Z,25.87
2018-02-14T16:08:50.868Z,25.77
2018-02-14T16:11:18.456Z,30.87
2018-02-14T16:13:46.013Z,29.30
2018-02-14T16:16:13.583Z,29.07
2018-02-14T16:18:41.300Z,33.50
2018-02-14T16:21:08.889Z,30.83
2018-02-14T16:23:36.444Z,32.87
2018-02-14T16:26:04.224Z,39.27
2018-02-14T16:28:31.787Z,45.70
2018-02-14T16:30:59.354Z,35.50
2018-02-14T16:33:26.938Z,18.40
2018-02-14T16:35:55.356Z,16.83
2018-02-14T16:38:22.923Z,19.60
2018-02-14T16:40:51.420Z,18.53
2018-02-14T16:43:18.981Z,17.30
2018-02-14T16:45:46.568Z,18.70
2018-02-14T16:48:14.185Z,18.83
2018-02-14T16:50:41.770Z,17.67
2018-02-14T16:53:09.319Z,18.27
2018-02-14T16:55:37.020Z,19.13
2018-02-14T16:58:04.602Z,19.43
2018-02-14T17:00:32.565Z,15.13
2018-02-14T17:03:00.306Z,17.43
2018-02-14T17:05:27.866Z,20.10
2018-02-14T17:07:55.438Z,21.87
2018-02-14T17:10:23.048Z,19.20
2018-02-14T17:12:50.598Z,18.77
2018-02-14T17:15:18.182Z,19.67
2018-02-14T17:17:45.788Z,20.10
2018-02-14T17:20:13.356Z,104.13
2018-02-14T17:22:40.917Z,24.20
2018-02-14T17:25:08.520Z,25.13
2018-02-14T17:27:36.110Z,20.80
2018-02-14T17:30:03.732Z,19.47
2018-02-14T17:32:31.323Z,18.43
2018-02-14T17:34:58.905Z,19.07
2018-02-14T17:37:26.501Z,15.13
2018-02-14T17:39:54.136Z,19.57
2018-02-14T17:42:21.697Z,16.97
2018-02-14T17:44:49.251Z,13.07
2018-02-14T17:47:17.123Z,13.80
2018-02-14T17:49:44.763Z,15.00
2018-02-14T17:52:12.340Z,15.23
2018-02-14T17:54:39.947Z,16.20
2018-02-14T17:57:07.535Z,17.17
2018-02-14T17:59:35.121Z,16.00
2018-02-14T18:02:02.724Z,15.43
2018-02-14T18:04:30.310Z,14.77
2018-02-14T18:06:57.870Z,23.00
2018-02-14T18:09:26.489Z,11.23
2018-02-14T18:11:54.094Z,11.80
2018-02-14T18:14:21.646Z,16.00
2018-02-14T18:16:49.219Z,16.30
2018-02-14T18:19:16.834Z,28.13
2018-02-14T18:21:44.680Z,21.07
2018-02-14T18:24:12.264Z,20.80
2018-02-14T18:26:39.832Z,17.13
2018-02-14T18:29:07.420Z,14.73
2018-02-14T18:31:35.005Z,16.57
2018-02-14T18:34:02.593Z,18.23
2018-02-14T18:36:30.191Z,18.37
2018-02-14T18:38:58.561Z,17.70
2018-02-14T18:41:26.128Z,15.87
2018-02-14T18:43:53.919Z,17.57
2018-02-14T18:46:21.491Z,21.20
2018-02-14T18:48:49.059Z,22.60
2018-02-14T18:51:16.655Z,18.80
2018-02-14T18:53:44.243Z,21.13
2018-02-14T18:56:11.822Z,19.97
2018-02-14T18:58:39.426Z,21.07
2018-02-14T19:01:06.995Z,23.03
2018-02-14T19:03:34.558Z,26.33
2018-02-14T19:06:02.278Z,23.07
2018-02-14T19:08:29.865Z,22.63
2018-02-14T19:10:57.474Z,23.07
2018-02-14T19:13:25.254Z,35.87
2018-02-14T19:15:52.847Z,28.23
2018-02-14T19:18:20.411Z,27.93
2018-02-14T19:20:48.350Z,27.67
2018-02-14T19:23:15.992Z,24.47
2018-02-14T19:25:43.593Z,22.37
2018-02-14T19:28:11.359Z,18.77
2018-02-14T19:30:38.958Z,22.63
2018-02-14T19:33:06.520Z,24.90
2018-02-14T19:35:34.114Z,18.77
2018-02-14T19:38:01.689Z,20.13
2018-02-14T19:40:29.248Z,21.17
2018-02-14T19:42:57.032Z,19.77
2018-02-14T19:45:24.639Z,20.10
2018-02-14T19:47:52.210Z,102.33
2018-02-14T19:50:19.973Z,24.47
2018-02-14T19:52:47.544Z,24.40
2018-02-14T19:55:15.128Z,28.80
2018-02-14T19:57:42.907Z,28.10
2018-02-14T20:00:10.501Z,33.83
2018-02-14T20:02:38.071Z,35.57
2018-02-14T20:05:05.708Z,31.70
2018-02-14T20:07:33.370Z,41.80
2018-02-14T20:10:00.991Z,30.73
2018-02-14T20:12:28.589Z,56.47
2018-02-14T20:14:56.175Z,41.00
2018-02-14T20:17:23.741Z,32.33
2018-02-14T20:19:51.352Z,25.67
2018-02-14T20:22:18.913Z,40.80
2018-02-14T20:24:46.521Z,41.30
2018-02-14T20:27:14.127Z,45.90
2018-02-14T20:29:41.723Z,27.13
2018-02-14T20:32:09.293Z,32.33
2018-02-14T20:34:37.105Z,26.67
2018-02-14T20:37:04.692Z,25.70
2018-02-14T20:39:32.247Z,30.23
2018-02-14T20:41:59.828Z,72.80
2018-02-14T20:44:27.424Z,40.43
2018-02-14T20:46:54.989Z,33.83
2018-02-14T21:02:36.385Z,31.57
2018-02-14T21:05:03.974Z,35.30
2018-02-14T21:07:31.642Z,38.73
2018-02-14T21:09:59.462Z,46.53
2018-02-14T21:12:27.035Z,37.10
2018-02-14T21:14:54.573Z,30.60
2018-02-14T21:17:22.198Z,34.00
2018-02-14T21:19:49.779Z,30.03
2018-02-14T21:22:17.673Z,31.67
2018-02-14T21:24:45.239Z,32.03
2018-02-14T21:27:12.788Z,33.97
2018-02-14T21:29:40.539Z,36.00
2018-02-14T21:32:08.151Z,35.87
2018-02-14T21:34:35.703Z,29.73
2018-02-14T21:37:03.479Z,32.17
2018-02-14T21:39:31.050Z,23.67
2018-02-14T21:41:58.605Z,18.80
2018-02-14T21:44:26.259Z,16.57
2018-02-14T21:46:53.885Z,15.30
2018-02-14T21:49:21.436Z,13.93
2018-02-14T21:51:49.145Z,17.00
2018-02-14T21:54:16.718Z,14.73
2018-02-14T21:56:44.273Z,10.17
2018-02-14T21:59:12.144Z,11.67
2018-02-14T22:01:39.699Z,11.20
2018-02-14T22:04:07.242Z,12.80
2018-02-14T22:06:34.828Z,16.63
2018-02-14T22:09:02.422Z,13.97
2018-02-14T22:11:29.978Z,12.63
2018-02-14T22:13:57.564Z,13.07
2018-02-14T22:16:25.472Z,12.07
2018-02-14T22:18:53.026Z,13.97
2018-02-14T22:21:20.626Z,12.80
2018-02-14T22:23:48.178Z,12.30
2018-02-14T22:26:15.722Z,13.47
2018-02-14T22:28:43.338Z,15.43
2018-02-14T22:31:10.906Z,12.97
2018-02-14T22:33:38.475Z,13.13
2018-02-14T22:36:06.354Z,14.23
2018-02-14T22:38:33.899Z,9.87
2018-02-14T22:41:01.441Z,9.23
2018-02-14T22:43:29.029Z,11.73
2018-02-14T22:45:56.577Z,12.27
2018-02-14T22:48:24.157Z,10.50
2018-02-14T22:50:51.973Z,13.73
2018-02-14T22:53:19.523Z,15.00
2018-02-14T22:55:47.074Z,14.20
2018-02-14T22:58:14.646Z,12.40
2018-02-14T23:00:42.191Z,13.30
2018-02-14T23:03:09.748Z,13.13
2018-02-14T23:05:37.486Z,12.50
2018-02-14T23:08:05.038Z,13.20
2018-02-14T23:10:33.456Z,12.30
2018-02-14T23:13:01.173Z,9.70
2018-02-14T23:15:28.721Z,9.40
2018-02-14T23:17:56.266Z,13.20
2018-02-14T23:20:23.994Z,10.70
2018-02-14T23:22:51.594Z,11.50
2018-02-14T23:25:19.147Z,11.67
2018-02-14T23:27:46.744Z,12.10
2018-02-14T23:30:14.655Z,12.73
2018-02-14T23:32:42.200Z,12.70
2018-02-14T23:35:09.892Z,12.00
2018-02-14T23:37:37.501Z,13.50
2018-02-14T23:40:05.071Z,11.87
2018-02-14T23:42:32.653Z,12.13
2018-02-14T23:45:00.203Z,12.30
2018-02-14T23:47:27.741Z,11.23
2018-02-14T23:49:55.314Z,13.30
2018-02-14T23:52:22.906Z,11.87
2018-02-14T23:54:50.452Z,12.93
2018-02-14T23:57:18.042Z,14.10
2018-02-14T23:59:45.601Z,14.97
